createdAt,value
2023-02-04T00:00:06.056Z,0
2023-02-04T00:00:46.592Z,0
2023-02-04T00:01:27.150Z,0
2023-02-04T00:02:07.660Z,0
2023-02-04T00:02:48.258Z,0
2023-02-04T00:03:28.706Z,0
2023-02-04T00:05:42.305Z,0
2023-02-04T00:06:22.854Z,0
2023-02-04T00:07:03.385Z,0
2023-02-04T00:07:43.903Z,0
2023-02-04T00:11:00.671Z,0
2023-02-04T00:11:41.255Z,0
2023-02-04T00:12:21.742Z,0
2023-02-04T00:13:02.263Z,0
2023-02-04T00:15:22.004Z,0
2023-02-04T00:16:02.636Z,0
2023-02-04T00:16:43.049Z,0
2023-02-04T00:17:23.603Z,0
2023-02-04T00:20:37.409Z,0
2023-02-04T00:21:17.898Z,0
2023-02-04T00:21:58.459Z,0
2023-02-04T00:22:39.037Z,0
2023-02-04T00:24:02.048Z,0
2023-02-04T00:24:43.229Z,0
2023-02-04T00:25:23.752Z,0
2023-02-04T00:26:04.344Z,0
2023-02-04T00:28:37.566Z,0
2023-02-04T00:29:18.146Z,0
2023-02-04T00:29:58.703Z,0
2023-02-04T00:30:39.246Z,0
2023-02-04T00:32:58.453Z,0
2023-02-04T00:33:39.818Z,0
2023-02-04T00:34:20.431Z,0
2023-02-04T00:35:01.704Z,0
2023-02-04T00:37:14.814Z,0
2023-02-04T00:37:55.358Z,0
2023-02-04T00:38:35.904Z,0
2023-02-04T00:39:16.429Z,0
2023-02-04T00:42:35.699Z,0
2023-02-04T00:43:16.204Z,0
2023-02-04T00:43:57.673Z,0
2023-02-04T00:44:38.188Z,0
2023-02-04T00:46:40.538Z,0
2023-02-04T00:47:21.046Z,0
2023-02-04T00:51:02.545Z,0
2023-02-04T00:51:43.148Z,0
2023-02-04T00:52:23.699Z,0
2023-02-04T00:53:04.203Z,0
2023-02-04T00:57:18.921Z,0
2023-02-04T00:58:00.943Z,0
2023-02-04T00:58:42.258Z,0
2023-02-04T00:59:22.790Z,0
2023-02-04T01:02:18.509Z,0
2023-02-04T01:02:58.241Z,0
2023-02-04T01:03:38.722Z,0
2023-02-04T01:04:19.262Z,0
2023-02-04T01:08:22.952Z,0
2023-02-04T01:09:03.498Z,0
2023-02-04T01:09:44.052Z,0
2023-02-04T01:10:24.654Z,0
2023-02-04T01:11:05.189Z,0
2023-02-04T01:11:45.747Z,0
2023-02-04T01:12:26.344Z,0
2023-02-04T01:13:06.853Z,0
2023-02-04T01:17:52.348Z,0
2023-02-04T01:18:32.891Z,0
2023-02-04T01:19:13.465Z,0
2023-02-04T01:19:54.019Z,0
2023-02-04T01:20:34.514Z,0
2023-02-04T01:21:15.090Z,0
2023-02-04T01:21:55.592Z,0
2023-02-04T01:22:36.269Z,0
2023-02-04T01:23:16.848Z,0
2023-02-04T01:28:18.387Z,0
2023-02-04T01:29:04.638Z,0
2023-02-04T01:29:47.156Z,0
2023-02-04T01:30:29.863Z,0
2023-02-04T01:32:58.737Z,0
2023-02-04T01:33:39.306Z,0
2023-02-04T01:34:19.881Z,0
2023-02-04T01:35:02.987Z,0
2023-02-04T01:37:36.971Z,0
2023-02-04T01:38:17.531Z,0
2023-02-04T01:38:58.192Z,0
2023-02-04T01:41:37.189Z,0
2023-02-04T01:42:17.710Z,0
2023-02-04T01:42:58.280Z,0
2023-02-04T01:43:38.907Z,0
2023-02-04T01:45:57.120Z,0
2023-02-04T01:46:37.618Z,0
2023-02-04T01:47:18.613Z,0
2023-02-04T01:47:59.197Z,0
2023-02-04T01:50:37.622Z,0
2023-02-04T01:51:18.996Z,0
2023-02-04T01:52:01.569Z,0
2023-02-04T01:52:42.137Z,0
2023-02-04T01:55:15.556Z,0
2023-02-04T01:55:56.896Z,0
2023-02-04T01:56:37.406Z,0
2023-02-04T01:57:17.936Z,0
2023-02-04T02:00:17.202Z,0
2023-02-04T02:00:57.764Z,0
2023-02-04T02:01:42.185Z,0
2023-02-04T02:04:07.076Z,0
2023-02-04T02:04:47.610Z,0
2023-02-04T02:05:28.126Z,0
2023-02-04T02:06:08.638Z,0
2023-02-04T02:08:21.669Z,0
2023-02-04T02:09:02.270Z,0
2023-02-04T02:09:42.752Z,0
2023-02-04T02:10:23.276Z,0
2023-02-04T02:12:57.023Z,0
2023-02-04T02:13:38.272Z,0
2023-02-04T02:14:19.022Z,0
2023-02-04T02:14:59.491Z,0
2023-02-04T02:17:18.133Z,0
2023-02-04T02:17:58.710Z,0
2023-02-04T02:18:39.272Z,0
2023-02-04T02:19:19.860Z,0
2023-02-04T02:22:43.242Z,0
2023-02-04T02:23:23.736Z,0
2023-02-04T02:24:04.960Z,0
2023-02-04T02:24:47.345Z,0
2023-02-04T02:29:02.185Z,0
2023-02-04T02:29:42.847Z,0
2023-02-04T02:30:23.368Z,0
2023-02-04T02:31:04.056Z,0
2023-02-04T02:33:18.498Z,0
2023-02-04T02:33:59.052Z,0
2023-02-04T02:34:41.620Z,0
2023-02-04T02:35:22.104Z,0
2023-02-04T02:38:00.645Z,0
2023-02-04T02:38:41.670Z,0
2023-02-04T02:39:23.197Z,0
2023-02-04T02:40:05.277Z,0
2023-02-04T02:42:19.572Z,0
2023-02-04T02:43:00.122Z,0
2023-02-04T02:43:40.636Z,0
2023-02-04T02:44:21.193Z,0
2023-02-04T02:47:55.359Z,0
2023-02-04T02:48:35.894Z,0
2023-02-04T02:49:16.462Z,0
2023-02-04T02:49:57.916Z,0
2023-02-04T02:52:40.080Z,0
2023-02-04T02:53:20.701Z,0
2023-02-04T02:54:01.227Z,0
2023-02-04T02:54:41.771Z,0
2023-02-04T02:55:23.004Z,0
2023-02-04T02:56:04.269Z,0
2023-02-04T02:56:44.814Z,0
2023-02-04T02:59:18.504Z,0
2023-02-04T02:59:59.122Z,0
2023-02-04T03:00:39.721Z,0
2023-02-04T03:01:21.997Z,0
2023-02-04T03:03:35.000Z,0
2023-02-04T03:04:17.171Z,0
2023-02-04T03:04:58.268Z,0
2023-02-04T03:05:40.120Z,0
2023-02-04T03:07:58.394Z,0
2023-02-04T03:08:39.075Z,0
2023-02-04T03:09:19.616Z,0
2023-02-04T03:10:00.254Z,0
2023-02-04T03:12:07.648Z,0
2023-02-04T03:12:48.307Z,0
2023-02-04T03:13:28.874Z,0
2023-02-04T03:14:09.506Z,0
2023-02-04T03:16:23.192Z,0
2023-02-04T03:17:03.766Z,0
2023-02-04T03:17:45.080Z,0
2023-02-04T03:18:25.747Z,0
2023-02-04T03:20:54.186Z,0
2023-02-04T03:21:34.786Z,0
2023-02-04T03:22:15.313Z,0
2023-02-04T03:22:55.834Z,0
2023-02-04T03:26:31.947Z,0
2023-02-04T03:27:12.578Z,0
2023-02-04T03:27:53.219Z,0
2023-02-04T03:28:33.683Z,0
2023-02-04T03:31:56.709Z,0
2023-02-04T03:34:35.048Z,0
2023-02-04T03:35:15.593Z,0
2023-02-04T03:35:56.105Z,0
2023-02-04T03:36:36.647Z,0
2023-02-04T03:38:52.601Z,0
2023-02-04T03:39:35.529Z,0
2023-02-04T03:40:16.855Z,0
2023-02-04T03:40:58.116Z,0
2023-02-04T03:43:27.936Z,0
2023-02-04T03:44:08.450Z,0
2023-02-04T03:44:49.001Z,0
2023-02-04T03:45:34.950Z,0
2023-02-04T03:47:43.092Z,0
2023-02-04T03:48:23.605Z,0
2023-02-04T03:49:05.007Z,0
2023-02-04T03:49:46.191Z,0
2023-02-04T03:51:59.456Z,0
2023-02-04T03:52:40.631Z,0
2023-02-04T03:53:21.168Z,0
2023-02-04T03:54:01.692Z,0
2023-02-04T03:57:35.886Z,0
2023-02-04T03:58:16.432Z,0
2023-02-04T03:58:56.966Z,0
2023-02-04T03:59:37.569Z,0
2023-02-04T04:01:51.761Z,0
2023-02-04T04:02:33.192Z,0
2023-02-04T04:03:14.288Z,0
2023-02-04T04:03:54.788Z,0
2023-02-04T04:06:54.907Z,0
2023-02-04T04:07:35.417Z,0
2023-02-04T04:08:17.601Z,0
2023-02-04T04:11:00.606Z,0
2023-02-04T04:11:42.672Z,0
2023-02-04T04:12:26.232Z,0
2023-02-04T04:13:07.363Z,0
2023-02-04T04:15:37.996Z,0
2023-02-04T04:16:18.582Z,0
2023-02-04T04:16:59.085Z,0
2023-02-04T04:17:39.608Z,0
2023-02-04T04:20:14.983Z,0
2023-02-04T04:20:56.067Z,0
2023-02-04T04:21:37.205Z,0
2023-02-04T04:22:17.734Z,0
2023-02-04T04:24:35.945Z,0
2023-02-04T04:25:16.501Z,0
2023-02-04T04:25:57.078Z,0
2023-02-04T04:26:37.693Z,0
2023-02-04T04:28:55.911Z,0
2023-02-04T04:29:36.562Z,0
2023-02-04T04:30:17.163Z,0
2023-02-04T04:32:56.099Z,0
2023-02-04T04:33:36.614Z,0
2023-02-04T04:34:17.847Z,0
2023-02-04T04:34:58.367Z,0
2023-02-04T04:38:20.947Z,0
2023-02-04T04:39:01.480Z,0
2023-02-04T04:39:41.983Z,0
2023-02-04T04:40:22.559Z,0
2023-02-04T04:41:03.078Z,0
2023-02-04T04:41:43.662Z,0
2023-02-04T04:42:24.146Z,0
2023-02-04T04:43:04.677Z,0
2023-02-04T04:43:45.178Z,0
2023-02-04T04:44:25.696Z,0
2023-02-04T04:49:02.815Z,0
2023-02-04T04:49:43.324Z,0
2023-02-04T04:50:23.826Z,0
2023-02-04T04:51:04.369Z,0
2023-02-04T04:53:07.613Z,0
2023-02-04T04:53:48.126Z,0
2023-02-04T04:54:28.675Z,0
2023-02-04T04:55:09.241Z,0
2023-02-04T04:55:49.800Z,0
2023-02-04T04:56:30.327Z,0
2023-02-04T04:57:10.902Z,0
2023-02-04T04:57:51.427Z,0
2023-02-04T04:58:31.988Z,0
2023-02-04T05:04:48.224Z,0
2023-02-04T05:05:28.726Z,0
2023-02-04T05:06:09.283Z,0
2023-02-04T05:06:49.829Z,0
2023-02-04T05:10:53.292Z,0
2023-02-04T05:11:34.724Z,0
2023-02-04T05:12:15.298Z,0
2023-02-04T05:12:55.829Z,0
2023-02-04T05:16:37.925Z,0
2023-02-04T05:17:18.369Z,0
2023-02-04T05:17:59.658Z,0
2023-02-04T05:18:40.187Z,0
2023-02-04T05:20:58.142Z,0
2023-02-04T05:21:38.927Z,0
2023-02-04T05:22:21.057Z,0
2023-02-04T05:24:59.264Z,0
2023-02-04T05:25:39.801Z,0
2023-02-04T05:26:29.717Z,0
2023-02-04T05:27:00.820Z,0
2023-02-04T05:31:38.394Z,0
2023-02-04T05:32:19.892Z,0
2023-02-04T05:33:00.468Z,0
2023-02-04T05:33:42.360Z,0
2023-02-04T05:35:55.384Z,0
2023-02-04T05:36:35.927Z,0
2023-02-04T05:37:17.573Z,0
2023-02-04T05:37:58.093Z,0
2023-02-04T05:40:51.726Z,0
2023-02-04T05:41:32.229Z,0
2023-02-04T05:42:12.769Z,0
2023-02-04T05:42:53.348Z,0
2023-02-04T05:45:47.001Z,0
2023-02-04T05:46:28.092Z,0
2023-02-04T05:47:09.429Z,0
2023-02-04T05:47:49.918Z,0
2023-02-04T05:50:03.269Z,0
2023-02-04T05:50:43.790Z,0
2023-02-04T05:51:24.342Z,0
2023-02-04T05:52:04.897Z,0
2023-02-04T05:55:39.473Z,0
2023-02-04T05:56:20.000Z,0
2023-02-04T05:57:00.556Z,0
2023-02-04T05:57:42.751Z,0
2023-02-04T05:59:03.833Z,0
2023-02-04T05:59:44.397Z,0
2023-02-04T06:02:18.267Z,0
2023-02-04T06:02:58.894Z,0
2023-02-04T06:03:39.462Z,0
2023-02-04T06:04:20.008Z,0
2023-02-04T06:06:58.357Z,0
2023-02-04T06:07:38.906Z,0
2023-02-04T06:08:19.476Z,0
2023-02-04T06:09:00.009Z,0
2023-02-04T06:11:55.209Z,0
2023-02-04T06:12:36.206Z,0
2023-02-04T06:13:16.728Z,0
2023-02-04T06:13:57.306Z,0
2023-02-04T06:16:10.602Z,0
2023-02-04T06:16:51.905Z,0
2023-02-04T06:17:32.417Z,0
2023-02-04T06:18:13.000Z,0
2023-02-04T06:21:35.610Z,0
2023-02-04T06:23:49.549Z,0
2023-02-04T06:24:30.100Z,0
2023-02-04T06:25:11.419Z,0
2023-02-04T06:25:52.727Z,0
2023-02-04T06:28:07.312Z,0
2023-02-04T06:28:47.883Z,0
2023-02-04T06:29:28.417Z,0
2023-02-04T06:30:09.028Z,0
2023-02-04T06:31:32.224Z,0
2023-02-04T06:32:12.629Z,0
2023-02-04T06:32:53.184Z,0
2023-02-04T06:35:06.243Z,0
2023-02-04T06:35:46.744Z,0
2023-02-04T06:36:27.297Z,0
2023-02-04T06:37:07.840Z,0
2023-02-04T06:41:11.302Z,0
2023-02-04T06:41:51.821Z,0
2023-02-04T06:44:05.947Z,0
2023-02-04T06:44:46.518Z,0
2023-02-04T06:45:27.061Z,0
2023-02-04T06:46:09.017Z,0
2023-02-04T06:48:22.010Z,0
2023-02-04T06:49:02.578Z,0
2023-02-04T06:49:43.092Z,0
2023-02-04T06:50:23.674Z,0
2023-02-04T06:52:56.737Z,5
2023-02-04T06:53:37.271Z,5
2023-02-04T06:54:17.821Z,5
2023-02-04T06:54:58.374Z,5
2023-02-04T06:58:32.594Z,5
2023-02-04T06:59:13.173Z,5
2023-02-04T06:59:53.666Z,5
2023-02-04T07:00:34.610Z,5
2023-02-04T07:02:48.534Z,5
2023-02-04T07:03:29.043Z,5
2023-02-04T07:04:09.593Z,10
2023-02-04T07:04:50.142Z,10
2023-02-04T07:08:54.265Z,10
2023-02-04T07:09:34.821Z,10
2023-02-04T07:10:15.365Z,10
2023-02-04T07:10:55.871Z,10
2023-02-04T07:11:36.384Z,10
2023-02-04T07:12:16.938Z,10
2023-02-04T07:12:57.464Z,10
2023-02-04T07:15:52.475Z,15
2023-02-04T07:16:36.702Z,15
2023-02-04T07:17:20.571Z,15
2023-02-04T07:20:01.776Z,15
2023-02-04T07:20:42.315Z,15
2023-02-04T07:21:22.815Z,15
2023-02-04T07:22:03.383Z,15
2023-02-04T07:26:07.183Z,20
2023-02-04T07:26:47.694Z,20
2023-02-04T07:27:28.224Z,20
2023-02-04T07:28:08.859Z,20
2023-02-04T07:28:49.291Z,20
2023-02-04T07:29:29.844Z,20
2023-02-04T07:30:10.395Z,25
2023-02-04T07:30:51.113Z,25
2023-02-04T07:36:27.391Z,35
2023-02-04T07:37:07.917Z,35
2023-02-04T07:37:48.476Z,35
2023-02-04T07:38:29.015Z,35
2023-02-04T07:42:32.296Z,35
2023-02-04T07:43:12.818Z,40
2023-02-04T07:43:53.361Z,40
2023-02-04T07:44:33.883Z,40
2023-02-04T07:47:01.913Z,40
2023-02-04T07:47:42.407Z,45
2023-02-04T07:48:23.877Z,45
2023-02-04T07:49:04.408Z,45
2023-02-04T07:51:46.683Z,50
2023-02-04T07:52:27.223Z,55
2023-02-04T07:53:07.813Z,55
2023-02-04T07:53:48.877Z,55
2023-02-04T07:54:29.405Z,55
2023-02-04T07:57:07.868Z,55
2023-02-04T07:57:48.391Z,55
2023-02-04T07:58:28.907Z,55
2023-02-04T07:59:09.501Z,55
2023-02-04T08:01:52.682Z,60
2023-02-04T08:02:33.116Z,65
2023-02-04T08:03:13.614Z,65
2023-02-04T08:03:54.125Z,65
2023-02-04T08:04:34.682Z,70
2023-02-04T08:05:15.238Z,70
2023-02-04T08:05:55.781Z,75
2023-02-04T08:06:37.299Z,75
2023-02-04T08:12:02.561Z,85
2023-02-04T08:12:44.049Z,85
2023-02-04T08:13:24.594Z,85
2023-02-04T08:14:05.114Z,90
2023-02-04T08:14:45.638Z,90
2023-02-04T08:15:26.150Z,90
2023-02-04T08:16:06.749Z,95
2023-02-04T08:16:47.241Z,100
2023-02-04T08:22:52.844Z,105
2023-02-04T08:23:33.370Z,110
2023-02-04T08:24:13.953Z,120
2023-02-04T08:24:54.493Z,125
2023-02-04T08:25:35.057Z,125
2023-02-04T08:26:15.575Z,125
2023-02-04T08:26:56.087Z,125
2023-02-04T08:27:36.616Z,125
2023-02-04T08:28:17.220Z,130
2023-02-04T08:32:14.221Z,145
2023-02-04T08:32:54.735Z,145
2023-02-04T08:33:35.312Z,150
2023-02-04T08:34:15.827Z,150
2023-02-04T08:37:51.188Z,150
2023-02-04T08:38:31.772Z,150
2023-02-04T08:39:12.285Z,155
2023-02-04T08:39:53.796Z,150
2023-02-04T08:41:56.047Z,150
2023-02-04T08:42:36.564Z,155
2023-02-04T08:43:17.123Z,155
2023-02-04T08:43:57.676Z,160
2023-02-04T08:44:38.243Z,160
2023-02-04T08:45:18.784Z,160
2023-02-04T08:45:59.325Z,155
2023-02-04T08:46:39.898Z,155
2023-02-04T08:47:20.399Z,155
2023-02-04T08:52:57.188Z,185
2023-02-04T08:53:37.728Z,185
2023-02-04T08:54:18.258Z,185
2023-02-04T08:54:58.802Z,195
2023-02-04T08:57:52.942Z,220
2023-02-04T08:58:33.592Z,210
2023-02-04T08:59:14.136Z,210
2023-02-04T08:59:54.739Z,200
2023-02-04T09:02:08.920Z,200
2023-02-04T09:02:49.965Z,205
2023-02-04T09:03:30.476Z,195
2023-02-04T09:04:11.842Z,205
2023-02-04T09:06:25.423Z,200
2023-02-04T09:07:05.979Z,200
2023-02-04T09:07:46.510Z,205
2023-02-04T09:08:27.042Z,205
2023-02-04T09:14:05.549Z,220
2023-02-04T09:14:51.968Z,225
2023-02-04T09:15:34.056Z,215
2023-02-04T09:16:26.005Z,225
2023-02-04T09:17:08.038Z,230
2023-02-04T09:17:48.577Z,230
2023-02-04T09:20:19.598Z,240
2023-02-04T09:21:00.141Z,240
2023-02-04T09:21:40.666Z,240
2023-02-04T09:22:21.227Z,245
2023-02-04T09:25:04.258Z,265
2023-02-04T09:25:44.813Z,270
2023-02-04T09:26:25.345Z,270
2023-02-04T09:29:03.587Z,300
2023-02-04T09:29:44.276Z,300
2023-02-04T09:30:24.805Z,305
2023-02-04T09:31:05.342Z,295
2023-02-04T09:35:20.605Z,300
2023-02-04T09:36:01.179Z,300
2023-02-04T09:36:41.708Z,295
2023-02-04T09:37:22.272Z,290
2023-02-04T09:42:40.538Z,260
2023-02-04T09:43:21.070Z,260
2023-02-04T09:44:01.624Z,260
2023-02-04T09:44:42.168Z,265
2023-02-04T09:49:38.000Z,290
2023-02-04T09:50:18.515Z,300
2023-02-04T09:50:59.045Z,300
2023-02-04T09:51:39.605Z,300
2023-02-04T09:56:35.387Z,255
2023-02-04T09:57:15.936Z,245
2023-02-04T09:57:57.327Z,225
2023-02-04T09:58:37.856Z,215
2023-02-04T10:01:20.107Z,200
2023-02-04T10:02:00.626Z,205
2023-02-04T10:02:41.911Z,215
2023-02-04T10:03:22.475Z,215
2023-02-04T10:04:03.049Z,215
2023-02-04T10:04:43.520Z,215
2023-02-04T10:05:24.065Z,215
2023-02-04T10:06:04.637Z,205
2023-02-04T10:09:39.448Z,180
2023-02-04T10:10:20.050Z,175
2023-02-04T10:11:00.600Z,180
2023-02-04T10:11:41.118Z,185
2023-02-04T10:15:56.392Z,180
2023-02-04T10:16:38.013Z,170
2023-02-04T10:17:18.434Z,170
2023-02-04T10:17:58.965Z,180
2023-02-04T10:20:53.152Z,170
2023-02-04T10:21:33.725Z,165
2023-02-04T10:22:15.192Z,170
2023-02-04T10:22:55.717Z,170
2023-02-04T10:25:51.151Z,165
2023-02-04T10:26:32.724Z,155
2023-02-04T10:27:14.935Z,155
2023-02-04T10:27:55.490Z,160
2023-02-04T10:30:10.539Z,195
2023-02-04T10:30:51.212Z,210
2023-02-04T10:31:32.619Z,205
2023-02-04T10:32:13.066Z,205
2023-02-04T10:34:27.351Z,240
2023-02-04T10:35:07.915Z,245
2023-02-04T10:35:49.392Z,240
2023-02-04T10:36:29.942Z,235
2023-02-04T10:40:44.648Z,235
2023-02-04T10:41:25.158Z,245
2023-02-04T10:42:05.700Z,235
2023-02-04T10:42:46.252Z,240
2023-02-04T10:45:30.208Z,240
2023-02-04T10:46:10.810Z,240
2023-02-04T10:46:52.710Z,245
2023-02-04T10:47:31.914Z,250
2023-02-04T10:48:12.406Z,260
2023-02-04T10:48:52.943Z,270
2023-02-04T10:49:33.453Z,275
2023-02-04T10:50:13.968Z,275
2023-02-04T10:53:24.070Z,285
2023-02-04T10:54:04.590Z,285
2023-02-04T10:54:45.110Z,295
2023-02-04T10:55:25.653Z,305
2023-02-04T10:58:48.923Z,310
2023-02-04T10:59:29.470Z,320
2023-02-04T11:00:10.084Z,320
2023-02-04T11:00:50.594Z,325
2023-02-04T11:01:31.189Z,325
2023-02-04T11:02:11.707Z,335
2023-02-04T11:02:52.222Z,345
2023-02-04T11:03:32.827Z,355
2023-02-04T11:04:13.371Z,355
2023-02-04T11:09:49.235Z,235
2023-02-04T11:10:29.844Z,235
2023-02-04T11:11:10.838Z,230
2023-02-04T11:11:51.374Z,230
2023-02-04T11:14:21.753Z,205
2023-02-04T11:15:03.200Z,210
2023-02-04T11:15:45.578Z,230
2023-02-04T11:16:27.597Z,225
2023-02-04T11:18:58.362Z,220
2023-02-04T11:19:38.897Z,220
2023-02-04T11:20:19.436Z,210
2023-02-04T11:21:00.833Z,210
2023-02-04T11:23:54.949Z,200
2023-02-04T11:24:35.522Z,200
2023-02-04T11:25:16.057Z,200
2023-02-04T11:25:56.584Z,200
2023-02-04T11:30:11.053Z,205
2023-02-04T11:30:51.720Z,210
2023-02-04T11:31:32.253Z,220
2023-02-04T11:32:12.713Z,225
2023-02-04T11:35:06.615Z,300
2023-02-04T11:35:47.257Z,320
2023-02-04T11:36:27.909Z,315
2023-02-04T11:37:08.559Z,320
2023-02-04T11:39:21.602Z,285
2023-02-04T11:40:02.205Z,300
2023-02-04T11:40:43.503Z,285
2023-02-04T11:41:23.977Z,270
2023-02-04T11:43:39.722Z,240
2023-02-04T11:44:20.300Z,235
2023-02-04T11:45:00.807Z,235
2023-02-04T11:45:41.381Z,235
2023-02-04T11:48:37.030Z,280
2023-02-04T11:49:17.441Z,300
2023-02-04T11:49:58.014Z,300
2023-02-04T11:50:38.587Z,305
2023-02-04T11:54:12.741Z,325
2023-02-04T11:54:54.304Z,335
2023-02-04T11:55:34.977Z,345
2023-02-04T11:56:15.684Z,350
2023-02-04T11:58:30.278Z,310
2023-02-04T11:59:10.882Z,275
2023-02-04T11:59:51.430Z,240
2023-02-04T12:00:31.946Z,225
2023-02-04T12:01:13.298Z,210
2023-02-04T12:01:53.806Z,210
2023-02-04T12:02:34.325Z,210
2023-02-04T12:03:14.863Z,215
2023-02-04T12:03:55.501Z,210
2023-02-04T12:04:35.966Z,210
2023-02-04T12:05:16.529Z,205
2023-02-04T12:05:57.071Z,200
2023-02-04T12:08:51.870Z,195
2023-02-04T12:09:32.527Z,205
2023-02-04T12:10:14.879Z,190
2023-02-04T12:10:56.235Z,180
2023-02-04T12:13:09.536Z,135
2023-02-04T12:13:50.053Z,130
2023-02-04T12:14:30.632Z,130
2023-02-04T12:15:11.169Z,125
2023-02-04T12:18:05.674Z,95
2023-02-04T12:18:46.216Z,95
2023-02-04T12:19:27.745Z,90
2023-02-04T12:20:07.294Z,90
2023-02-04T12:23:01.411Z,95
2023-02-04T12:23:41.941Z,100
2023-02-04T12:24:22.477Z,105
2023-02-04T12:25:03.918Z,105
2023-02-04T12:27:46.163Z,130
2023-02-04T12:28:26.663Z,145
2023-02-04T12:29:07.186Z,165
2023-02-04T12:29:47.702Z,175
2023-02-04T12:30:28.224Z,190
2023-02-04T12:31:08.934Z,195
2023-02-04T12:31:49.463Z,195
2023-02-04T12:32:29.837Z,205
2023-02-04T12:33:10.387Z,225
2023-02-04T12:33:50.904Z,265
2023-02-04T12:38:08.799Z,315
2023-02-04T12:38:52.223Z,305
2023-02-04T12:39:34.612Z,305
2023-02-04T12:40:15.732Z,295
2023-02-04T12:42:31.729Z,220
2023-02-04T12:43:12.298Z,190
2023-02-04T12:43:52.846Z,175
2023-02-04T12:44:33.364Z,165
2023-02-04T12:48:36.712Z,135
2023-02-04T12:49:17.194Z,125
2023-02-04T12:49:57.722Z,115
2023-02-04T12:50:38.255Z,110
2023-02-04T12:51:18.800Z,105
2023-02-04T12:51:59.360Z,105
2023-02-04T12:52:39.901Z,100
2023-02-04T12:55:19.012Z,100
2023-02-04T12:55:59.581Z,100
2023-02-04T12:56:40.115Z,100
2023-02-04T12:57:20.720Z,105
2023-02-04T13:01:23.992Z,105
2023-02-04T13:02:05.448Z,105
2023-02-04T13:02:45.921Z,110
2023-02-04T13:03:26.446Z,110
2023-02-04T13:06:05.166Z,110
2023-02-04T13:06:45.769Z,115
2023-02-04T13:07:26.298Z,110
2023-02-04T13:08:06.850Z,110
2023-02-04T13:12:10.143Z,95
2023-02-04T13:12:50.705Z,95
2023-02-04T13:13:31.246Z,95
2023-02-04T13:14:11.795Z,95
2023-02-04T13:14:52.353Z,95
2023-02-04T13:15:33.246Z,95
2023-02-04T13:16:13.525Z,90
2023-02-04T13:16:54.027Z,90
2023-02-04T13:17:34.571Z,90
2023-02-04T13:23:51.969Z,95
2023-02-04T13:24:32.526Z,95
2023-02-04T13:25:13.072Z,95
2023-02-04T13:25:53.635Z,95
2023-02-04T13:29:28.382Z,115
2023-02-04T13:30:08.959Z,115
2023-02-04T13:30:49.540Z,115
2023-02-04T13:31:30.158Z,115
2023-02-04T13:36:25.971Z,115
2023-02-04T13:37:06.533Z,120
2023-02-04T13:37:47.084Z,125
2023-02-04T13:38:27.621Z,135
2023-02-04T13:41:21.216Z,170
2023-02-04T13:42:03.657Z,180
2023-02-04T13:42:44.923Z,195
2023-02-04T13:43:25.429Z,200
2023-02-04T13:45:45.186Z,200
2023-02-04T13:46:25.628Z,190
2023-02-04T13:47:06.180Z,180
2023-02-04T13:47:46.744Z,185
2023-02-04T13:51:22.597Z,170
2023-02-04T13:52:04.974Z,170
2023-02-04T13:52:47.467Z,165
2023-02-04T13:53:30.001Z,165
2023-02-04T13:54:10.955Z,150
2023-02-04T13:54:57.962Z,145
2023-02-04T13:55:40.344Z,145
2023-02-04T13:57:59.702Z,145
2023-02-04T13:58:40.239Z,145
2023-02-04T13:59:21.148Z,140
2023-02-04T14:00:01.281Z,140
2023-02-04T14:04:04.495Z,130
2023-02-04T14:04:45.047Z,125
2023-02-04T14:05:25.577Z,125
2023-02-04T14:06:06.115Z,125
2023-02-04T14:06:46.675Z,120
2023-02-04T14:07:27.216Z,120
2023-02-04T14:08:07.766Z,120
2023-02-04T14:08:48.331Z,115
2023-02-04T14:09:28.866Z,115
2023-02-04T14:17:07.125Z,105
2023-02-04T14:17:47.679Z,105
2023-02-04T14:18:28.217Z,105
2023-02-04T14:19:08.756Z,105
2023-02-04T14:22:02.872Z,105
2023-02-04T14:22:43.386Z,105
2023-02-04T14:23:23.958Z,105
2023-02-04T14:24:04.515Z,105
2023-02-04T14:28:07.872Z,100
2023-02-04T14:28:48.348Z,100
2023-02-04T14:29:28.904Z,100
2023-02-04T14:30:09.463Z,95
2023-02-04T14:30:50.117Z,95
2023-02-04T14:31:30.613Z,95
2023-02-04T14:32:11.128Z,95
2023-02-04T14:32:51.652Z,100
2023-02-04T14:33:32.217Z,100
2023-02-04T14:39:37.871Z,120
2023-02-04T14:40:18.344Z,125
2023-02-04T14:40:58.892Z,130
2023-02-04T14:41:39.425Z,135
2023-02-04T14:42:19.993Z,135
2023-02-04T14:43:00.528Z,135
2023-02-04T14:43:41.096Z,135
2023-02-04T14:44:21.649Z,135
2023-02-04T14:45:02.198Z,135
2023-02-04T14:52:40.736Z,135
2023-02-04T14:53:21.276Z,135
2023-02-04T14:54:01.848Z,135
2023-02-04T14:54:42.392Z,135
2023-02-04T14:57:36.719Z,145
2023-02-04T14:58:17.247Z,140
2023-02-04T14:58:57.775Z,140
2023-02-04T14:59:38.350Z,135
2023-02-04T15:03:53.639Z,120
2023-02-04T15:04:34.181Z,115
2023-02-04T15:05:14.716Z,115
2023-02-04T15:05:55.284Z,115
2023-02-04T15:08:49.406Z,100
2023-02-04T15:09:29.944Z,95
2023-02-04T15:10:10.481Z,90
2023-02-04T15:10:51.000Z,90
2023-02-04T15:14:25.374Z,75
2023-02-04T15:15:05.928Z,75
2023-02-04T15:15:46.477Z,75
2023-02-04T15:16:27.119Z,70
2023-02-04T15:20:30.486Z,70
2023-02-04T15:21:10.740Z,70
2023-02-04T15:21:51.266Z,65
2023-02-04T15:22:31.792Z,65
2023-02-04T15:25:01.274Z,60
2023-02-04T15:25:41.840Z,60
2023-02-04T15:26:22.358Z,60
2023-02-04T15:27:02.889Z,60
2023-02-04T15:29:46.044Z,60
2023-02-04T15:30:26.621Z,65
2023-02-04T15:31:07.913Z,65
2023-02-04T15:31:48.518Z,65
2023-02-04T15:32:28.913Z,65
2023-02-04T15:33:09.417Z,65
2023-02-04T15:33:49.957Z,65
2023-02-04T15:34:30.530Z,60
2023-02-04T15:41:15.882Z,60
2023-02-04T15:41:56.593Z,60
2023-02-04T15:42:37.141Z,60
2023-02-04T15:43:17.650Z,55
2023-02-04T15:43:58.180Z,55
2023-02-04T15:44:38.701Z,50
2023-02-04T15:45:19.840Z,50
2023-02-04T15:46:00.432Z,50
2023-02-04T15:46:40.908Z,50
2023-02-04T15:49:37.207Z,40
2023-02-04T15:50:17.750Z,40
2023-02-04T15:50:58.241Z,40
2023-02-04T15:51:38.824Z,35
2023-02-04T15:53:53.077Z,35
2023-02-04T15:54:33.590Z,30
2023-02-04T15:55:14.160Z,30
2023-02-04T15:55:55.264Z,30
2023-02-04T16:00:53.550Z,25
2023-02-04T16:01:34.171Z,25
2023-02-04T16:02:16.067Z,25
2023-02-04T16:03:00.200Z,25
2023-02-04T16:03:41.236Z,20
2023-02-04T16:05:46.063Z,20
2023-02-04T16:06:28.049Z,20
2023-02-04T16:07:08.639Z,20
2023-02-04T16:09:15.654Z,15
2023-02-04T16:09:56.890Z,15
2023-02-04T16:10:37.401Z,15
2023-02-04T16:11:19.526Z,15
2023-02-04T16:12:00.045Z,15
2023-02-04T16:14:45.574Z,10
2023-02-04T16:15:26.884Z,10
2023-02-04T16:16:07.422Z,10
2023-02-04T16:16:48.493Z,10
2023-02-04T16:17:29.768Z,10
2023-02-04T16:20:17.118Z,10
2023-02-04T16:20:59.072Z,5
2023-02-04T16:23:56.306Z,5
2023-02-04T16:24:38.666Z,5
2023-02-04T16:25:21.700Z,5
2023-02-04T16:26:02.223Z,5
2023-02-04T16:26:43.559Z,5
2023-02-04T16:29:23.229Z,5
2023-02-04T16:30:03.742Z,0
2023-02-04T16:30:44.385Z,0
2023-02-04T16:31:24.929Z,0
2023-02-04T16:34:19.038Z,0
2023-02-04T16:34:59.563Z,0
2023-02-04T16:35:40.084Z,0
2023-02-04T16:36:20.591Z,0
2023-02-04T16:39:14.740Z,0
2023-02-04T16:39:55.267Z,0
2023-02-04T16:40:35.909Z,0
2023-02-04T16:41:16.312Z,0
2023-02-04T16:46:12.192Z,0
2023-02-04T16:46:52.706Z,0
2023-02-04T16:47:33.248Z,0
2023-02-04T16:48:13.817Z,0
2023-02-04T16:51:48.558Z,0
2023-02-04T16:52:29.102Z,0
2023-02-04T16:53:09.669Z,0
2023-02-04T16:53:50.207Z,0
2023-02-04T16:56:45.984Z,0
2023-02-04T16:57:26.499Z,0
2023-02-04T16:58:07.020Z,0
2023-02-04T16:58:47.555Z,0
2023-02-04T17:00:49.102Z,0
2023-02-04T17:01:30.399Z,0
2023-02-04T17:02:10.921Z,0
2023-02-04T17:02:51.534Z,0
2023-02-04T17:03:32.024Z,0
2023-02-04T17:04:12.579Z,0
2023-02-04T17:04:53.125Z,0
2023-02-04T17:05:33.926Z,0
2023-02-04T17:11:09.180Z,0
2023-02-04T17:11:49.715Z,0
2023-02-04T17:12:30.262Z,0
2023-02-04T17:13:10.803Z,0
2023-02-04T17:18:06.676Z,0
2023-02-04T17:18:48.784Z,0
2023-02-04T17:19:30.409Z,0
2023-02-04T17:20:10.930Z,0
2023-02-04T17:22:23.693Z,0
2023-02-04T17:23:04.208Z,0
2023-02-04T17:23:44.776Z,0
2023-02-04T17:24:25.332Z,0
2023-02-04T17:28:00.249Z,0
2023-02-04T17:28:40.662Z,0
2023-02-04T17:29:21.190Z,0
2023-02-04T17:30:01.696Z,0
2023-02-04T17:33:24.874Z,0
2023-02-04T17:34:05.454Z,0
2023-02-04T17:34:46.028Z,0
2023-02-04T17:35:26.567Z,0
2023-02-04T17:36:07.078Z,0
2023-02-04T17:36:47.673Z,0
2023-02-04T17:37:28.224Z,0
2023-02-04T17:38:08.833Z,0